sensor_id;sensor_type;location;lat;lon;timestamp;P1;durP1;ratioP1;P2;durP2;ratioP2
41693;SDS011;27377;50.666;9.150;2022-09-11T00:01:24;6.50;;;5.00;;
41693;SDS011;27377;50.666;9.150;2022-09-11T00:03:51;5.60;;;4.53;;
41693;SDS011;27377;50.666;9.150;2022-09-11T00:06:19;6.00;;;4.82;;
41693;SDS011;27377;50.666;9.150;2022-09-11T00:08:44;5.88;;;4.50;;
41693;SDS011;27377;50.666;9.150;2022-09-11T00:11:14;5.72;;;4.50;;
41693;SDS011;27377;50.666;9.150;2022-09-11T00:13:42;5.80;;;4.50;;
41693;SDS011;27377;50.666;9.150;2022-09-11T00:16:23;6.30;;;5.00;;
41693;SDS011;27377;50.666;9.150;2022-09-11T00:18:55;6.55;;;4.93;;
41693;SDS011;27377;50.666;9.150;2022-09-11T00:21:23;5.97;;;4.90;;
41693;SDS011;27377;50.666;9.150;2022-09-11T00:23:49;6.78;;;4.97;;
41693;SDS011;27377;50.666;9.150;2022-09-11T00:26:16;6.80;;;5.30;;
41693;SDS011;27377;50.666;9.150;2022-09-11T00:28:42;6.30;;;5.10;;
41693;SDS011;27377;50.666;9.150;2022-09-11T00:31:19;5.70;;;5.00;;
41693;SDS011;27377;50.666;9.150;2022-09-11T00:33:46;6.68;;;4.85;;
41693;SDS011;27377;50.666;9.150;2022-09-11T00:36:14;6.60;;;5.05;;
41693;SDS011;27377;50.666;9.150;2022-09-11T00:38:42;6.07;;;4.88;;
41693;SDS011;27377;50.666;9.150;2022-09-11T00:41:15;7.10;;;5.45;;
41693;SDS011;27377;50.666;9.150;2022-09-11T00:43:49;6.15;;;5.05;;
41693;SDS011;27377;50.666;9.150;2022-09-11T00:46:16;6.53;;;5.03;;
41693;SDS011;27377;50.666;9.150;2022-09-11T00:48:43;5.90;;;4.80;;
41693;SDS011;27377;50.666;9.150;2022-09-11T00:51:13;6.68;;;4.90;;
41693;SDS011;27377;50.666;9.150;2022-09-11T00:53:43;6.70;;;5.07;;
41693;SDS011;27377;50.666;9.150;2022-09-11T00:56:10;6.90;;;4.90;;
41693;SDS011;27377;50.666;9.150;2022-09-11T00:58:37;6.80;;;4.93;;
41693;SDS011;27377;50.666;9.150;2022-09-11T01:01:06;6.75;;;4.70;;
41693;SDS011;27377;50.666;9.150;2022-09-11T01:03:32;6.63;;;4.80;;
41693;SDS011;27377;50.666;9.150;2022-09-11T01:05:58;7.82;;;5.05;;
41693;SDS011;27377;50.666;9.150;2022-09-11T01:08:24;5.65;;;4.60;;
41693;SDS011;27377;50.666;9.150;2022-09-11T01:13:40;5.82;;;4.90;;
41693;SDS011;27377;50.666;9.150;2022-09-11T01:19:05;6.75;;;4.90;;
41693;SDS011;27377;50.666;9.150;2022-09-11T01:24:37;6.80;;;4.57;;
41693;SDS011;27377;50.666;9.150;2022-09-11T01:30:04;7.38;;;5.18;;
41693;SDS011;27377;50.666;9.150;2022-09-11T01:35:26;6.90;;;4.68;;
41693;SDS011;27377;50.666;9.150;2022-09-11T01:38:24;7.80;;;4.95;;
41693;SDS011;27377;50.666;9.150;2022-09-11T01:40:54;6.78;;;4.55;;
41693;SDS011;27377;50.666;9.150;2022-09-11T01:43:24;6.60;;;5.10;;
41693;SDS011;27377;50.666;9.150;2022-09-11T01:45:52;6.60;;;5.00;;
41693;SDS011;27377;50.666;9.150;2022-09-11T01:48:24;5.78;;;4.88;;
41693;SDS011;27377;50.666;9.150;2022-09-11T01:50:54;6.50;;;4.90;;
41693;SDS011;27377;50.666;9.150;2022-09-11T01:53:22;6.18;;;5.15;;
41693;SDS011;27377;50.666;9.150;2022-09-11T01:55:54;6.47;;;5.37;;
41693;SDS011;27377;50.666;9.150;2022-09-11T01:58:26;6.38;;;5.18;;
41693;SDS011;27377;50.666;9.150;2022-09-11T02:00:56;7.35;;;5.25;;
41693;SDS011;27377;50.666;9.150;2022-09-11T02:03:44;8.10;;;5.10;;
41693;SDS011;27377;50.666;9.150;2022-09-11T02:06:30;6.57;;;5.15;;
41693;SDS011;27377;50.666;9.150;2022-09-11T02:09:03;6.80;;;5.30;;
41693;SDS011;27377;50.666;9.150;2022-09-11T02:11:33;7.07;;;5.30;;
41693;SDS011;27377;50.666;9.150;2022-09-11T02:14:06;6.63;;;5.00;;
41693;SDS011;27377;50.666;9.150;2022-09-11T02:16:51;9.15;;;5.57;;
41693;SDS011;27377;50.666;9.150;2022-09-11T02:19:27;5.38;;;4.78;;
41693;SDS011;27377;50.666;9.150;2022-09-11T02:21:55;6.38;;;5.40;;
41693;SDS011;27377;50.666;9.150;2022-09-11T02:24:22;6.30;;;5.35;;
41693;SDS011;27377;50.666;9.150;2022-09-11T02:26:49;7.20;;;5.38;;
41693;SDS011;27377;50.666;9.150;2022-09-11T02:29:19;7.00;;;5.40;;
41693;SDS011;27377;50.666;9.150;2022-09-11T02:31:45;6.65;;;5.20;;
41693;SDS011;27377;50.666;9.150;2022-09-11T02:34:12;8.02;;;5.25;;
41693;SDS011;27377;50.666;9.150;2022-09-11T02:36:42;8.52;;;5.70;;
41693;SDS011;27377;50.666;9.150;2022-09-11T02:56:16;7.57;;;5.75;;
41693;SDS011;27377;50.666;9.150;2022-09-11T02:58:54;6.50;;;5.50;;
41693;SDS011;27377;50.666;9.150;2022-09-11T03:01:22;7.07;;;5.50;;
41693;SDS011;27377;50.666;9.150;2022-09-11T03:03:48;7.63;;;5.50;;
41693;SDS011;27377;50.666;9.150;2022-09-11T03:06:15;7.75;;;6.05;;
41693;SDS011;27377;50.666;9.150;2022-09-11T03:08:48;9.15;;;6.60;;
41693;SDS011;27377;50.666;9.150;2022-09-11T03:11:14;8.02;;;6.38;;
41693;SDS011;27377;50.666;9.150;2022-09-11T03:13:41;7.82;;;6.38;;
41693;SDS011;27377;50.666;9.150;2022-09-11T03:16:08;9.00;;;6.55;;
41693;SDS011;27377;50.666;9.150;2022-09-11T03:18:34;8.60;;;5.88;;
41693;SDS011;27377;50.666;9.150;2022-09-11T03:21:00;7.97;;;5.78;;
41693;SDS011;27377;50.666;9.150;2022-09-11T03:23:26;9.05;;;5.68;;
41693;SDS011;27377;50.666;9.150;2022-09-11T03:25:52;7.63;;;6.35;;
41693;SDS011;27377;50.666;9.150;2022-09-11T03:28:18;8.65;;;6.13;;
41693;SDS011;27377;50.666;9.150;2022-09-11T03:30:44;8.48;;;6.20;;
41693;SDS011;27377;50.666;9.150;2022-09-11T03:33:10;7.60;;;6.10;;
41693;SDS011;27377;50.666;9.150;2022-09-11T03:35:36;7.83;;;6.10;;
41693;SDS011;27377;50.666;9.150;2022-09-11T03:38:02;6.95;;;5.95;;
41693;SDS011;27377;50.666;9.150;2022-09-11T03:40:28;9.02;;;6.20;;
41693;SDS011;27377;50.666;9.150;2022-09-11T03:42:53;8.13;;;6.00;;
41693;SDS011;27377;50.666;9.150;2022-09-11T03:45:19;8.05;;;5.85;;
41693;SDS011;27377;50.666;9.150;2022-09-11T03:47:45;9.77;;;6.50;;
41693;SDS011;27377;50.666;9.150;2022-09-11T03:50:10;8.03;;;6.03;;
41693;SDS011;27377;50.666;9.150;2022-09-11T03:52:37;8.38;;;5.80;;
41693;SDS011;27377;50.666;9.150;2022-09-11T03:55:03;9.13;;;7.00;;
41693;SDS011;27377;50.666;9.150;2022-09-11T03:57:32;8.68;;;6.70;;
41693;SDS011;27377;50.666;9.150;2022-09-11T03:59:59;8.88;;;6.97;;
41693;SDS011;27377;50.666;9.150;2022-09-11T04:02:25;10.07;;;7.22;;
41693;SDS011;27377;50.666;9.150;2022-09-11T04:04:51;8.10;;;6.60;;
41693;SDS011;27377;50.666;9.150;2022-09-11T04:07:16;8.40;;;7.18;;
41693;SDS011;27377;50.666;9.150;2022-09-11T04:09:42;10.00;;;6.78;;
41693;SDS011;27377;50.666;9.150;2022-09-11T04:12:08;10.13;;;6.32;;
41693;SDS011;27377;50.666;9.150;2022-09-11T04:14:35;8.82;;;6.10;;
41693;SDS011;27377;50.666;9.150;2022-09-11T04:17:00;10.63;;;6.73;;
41693;SDS011;27377;50.666;9.150;2022-09-11T04:19:26;8.70;;;6.43;;
41693;SDS011;27377;50.666;9.150;2022-09-11T04:21:53;8.80;;;6.23;;
41693;SDS011;27377;50.666;9.150;2022-09-11T04:24:19;8.90;;;6.60;;
41693;SDS011;27377;50.666;9.150;2022-09-11T04:26:44;9.27;;;6.53;;
41693;SDS011;27377;50.666;9.150;2022-09-11T04:29:10;8.50;;;6.30;;
41693;SDS011;27377;50.666;9.150;2022-09-11T04:31:36;9.63;;;6.47;;
41693;SDS011;27377;50.666;9.150;2022-09-11T04:34:02;8.85;;;6.50;;
41693;SDS011;27377;50.666;9.150;2022-09-11T04:36:28;10.90;;;6.72;;
41693;SDS011;27377;50.666;9.150;2022-09-11T04:38:54;8.75;;;6.22;;
41693;SDS011;27377;50.666;9.150;2022-09-11T04:41:22;8.15;;;6.25;;
41693;SDS011;27377;50.666;9.150;2022-09-11T04:43:52;8.23;;;6.50;;
41693;SDS011;27377;50.666;9.150;2022-09-11T04:46:18;9.27;;;6.40;;
41693;SDS011;27377;50.666;9.150;2022-09-11T04:48:48;7.90;;;6.60;;
41693;SDS011;27377;50.666;9.150;2022-09-11T04:51:26;9.60;;;6.78;;
41693;SDS011;27377;50.666;9.150;2022-09-11T04:53:54;9.23;;;6.90;;
41693;SDS011;27377;50.666;9.150;2022-09-11T04:56:24;8.30;;;6.95;;
41693;SDS011;27377;50.666;9.150;2022-09-11T04:59:02;8.52;;;6.80;;
41693;SDS011;27377;50.666;9.150;2022-09-11T05:01:37;7.95;;;6.57;;
41693;SDS011;27377;50.666;9.150;2022-09-11T05:04:03;9.07;;;6.80;;
41693;SDS011;27377;50.666;9.150;2022-09-11T05:06:29;9.07;;;7.00;;
41693;SDS011;27377;50.666;9.150;2022-09-11T05:08:59;8.90;;;6.65;;
41693;SDS011;27377;50.666;9.150;2022-09-11T05:11:29;7.60;;;6.70;;
41693;SDS011;27377;50.666;9.150;2022-09-11T05:13:55;9.18;;;7.18;;
41693;SDS011;27377;50.666;9.150;2022-09-11T05:16:24;7.82;;;6.57;;
41693;SDS011;27377;50.666;9.150;2022-09-11T05:18:51;9.18;;;7.35;;
41693;SDS011;27377;50.666;9.150;2022-09-11T05:21:18;7.88;;;7.07;;
41693;SDS011;27377;50.666;9.150;2022-09-11T05:23:46;8.88;;;7.28;;
41693;SDS011;27377;50.666;9.150;2022-09-11T05:26:15;8.60;;;7.07;;
41693;SDS011;27377;50.666;9.150;2022-09-11T05:28:42;8.90;;;6.93;;
41693;SDS011;27377;50.666;9.150;2022-09-11T05:31:14;8.17;;;6.53;;
41693;SDS011;27377;50.666;9.150;2022-09-11T05:33:42;8.63;;;6.83;;
41693;SDS011;27377;50.666;9.150;2022-09-11T05:36:09;8.07;;;6.90;;
41693;SDS011;27377;50.666;9.150;2022-09-11T05:38:35;8.30;;;6.72;;
41693;SDS011;27377;50.666;9.150;2022-09-11T05:41:03;9.10;;;6.90;;
41693;SDS011;27377;50.666;9.150;2022-09-11T05:43:30;8.55;;;7.10;;
41693;SDS011;27377;50.666;9.150;2022-09-11T05:45:59;13.13;;;7.07;;
41693;SDS011;27377;50.666;9.150;2022-09-11T05:48:28;8.40;;;7.40;;
41693;SDS011;27377;50.666;9.150;2022-09-11T05:50:59;7.97;;;7.13;;
41693;SDS011;27377;50.666;9.150;2022-09-11T05:53:26;7.80;;;7.00;;
41693;SDS011;27377;50.666;9.150;2022-09-11T05:55:56;6.68;;;5.20;;
41693;SDS011;27377;50.666;9.150;2022-09-11T05:58:22;8.13;;;6.60;;
41693;SDS011;27377;50.666;9.150;2022-09-11T06:00:47;8.57;;;7.20;;
41693;SDS011;27377;50.666;9.150;2022-09-11T06:03:14;7.85;;;6.20;;
41693;SDS011;27377;50.666;9.150;2022-09-11T06:05:40;7.18;;;6.10;;
41693;SDS011;27377;50.666;9.150;2022-09-11T06:08:07;8.48;;;6.45;;
41693;SDS011;27377;50.666;9.150;2022-09-11T06:10:33;9.02;;;7.40;;
41693;SDS011;27377;50.666;9.150;2022-09-11T06:13:00;9.40;;;7.53;;
41693;SDS011;27377;50.666;9.150;2022-09-11T06:15:26;8.25;;;7.30;;
41693;SDS011;27377;50.666;9.150;2022-09-11T06:17:52;9.23;;;7.68;;
41693;SDS011;27377;50.666;9.150;2022-09-11T06:20:18;10.18;;;8.02;;
41693;SDS011;27377;50.666;9.150;2022-09-11T06:22:43;12.68;;;8.50;;
41693;SDS011;27377;50.666;9.150;2022-09-11T06:25:09;10.77;;;8.38;;
41693;SDS011;27377;50.666;9.150;2022-09-11T06:27:35;9.47;;;8.07;;
41693;SDS011;27377;50.666;9.150;2022-09-11T06:30:00;8.37;;;7.40;;
41693;SDS011;27377;50.666;9.150;2022-09-11T06:32:26;10.27;;;8.18;;
41693;SDS011;27377;50.666;9.150;2022-09-11T06:34:51;9.73;;;8.07;;
41693;SDS011;27377;50.666;9.150;2022-09-11T06:37:18;10.45;;;7.97;;
41693;SDS011;27377;50.666;9.150;2022-09-11T06:39:43;8.90;;;8.00;;
41693;SDS011;27377;50.666;9.150;2022-09-11T06:42:09;11.07;;;8.90;;
41693;SDS011;27377;50.666;9.150;2022-09-11T06:44:35;11.35;;;8.80;;
41693;SDS011;27377;50.666;9.150;2022-09-11T06:47:00;11.13;;;8.70;;
41693;SDS011;27377;50.666;9.150;2022-09-11T06:49:26;10.82;;;8.77;;
41693;SDS011;27377;50.666;9.150;2022-09-11T06:51:52;11.48;;;9.02;;
41693;SDS011;27377;50.666;9.150;2022-09-11T06:54:18;11.80;;;9.13;;
41693;SDS011;27377;50.666;9.150;2022-09-11T06:56:44;10.05;;;9.05;;
41693;SDS011;27377;50.666;9.150;2022-09-11T06:59:10;11.27;;;9.30;;
41693;SDS011;27377;50.666;9.150;2022-09-11T07:01:35;11.30;;;8.98;;
41693;SDS011;27377;50.666;9.150;2022-09-11T07:04:01;10.13;;;9.10;;
41693;SDS011;27377;50.666;9.150;2022-09-11T07:06:27;12.15;;;9.35;;
41693;SDS011;27377;50.666;9.150;2022-09-11T07:08:58;10.65;;;9.45;;
41693;SDS011;27377;50.666;9.150;2022-09-11T07:11:28;11.93;;;9.80;;
41693;SDS011;27377;50.666;9.150;2022-09-11T07:13:58;12.63;;;10.20;;
41693;SDS011;27377;50.666;9.150;2022-09-11T07:16:26;14.05;;;11.13;;
41693;SDS011;27377;50.666;9.150;2022-09-11T07:18:52;12.90;;;10.97;;
41693;SDS011;27377;50.666;9.150;2022-09-11T07:21:18;13.98;;;11.32;;
41693;SDS011;27377;50.666;9.150;2022-09-11T07:23:47;14.00;;;11.45;;
41693;SDS011;27377;50.666;9.150;2022-09-11T07:26:14;15.05;;;11.80;;
41693;SDS011;27377;50.666;9.150;2022-09-11T07:28:41;13.27;;;11.87;;
41693;SDS011;27377;50.666;9.150;2022-09-11T07:31:14;15.13;;;12.63;;
41693;SDS011;27377;50.666;9.150;2022-09-11T07:33:42;15.40;;;12.83;;
41693;SDS011;27377;50.666;9.150;2022-09-11T07:38:41;16.48;;;12.93;;
41693;SDS011;27377;50.666;9.150;2022-09-11T07:41:08;14.95;;;12.27;;
41693;SDS011;27377;50.666;9.150;2022-09-11T07:43:35;15.25;;;13.18;;
41693;SDS011;27377;50.666;9.150;2022-09-11T07:46:02;16.57;;;13.80;;
41693;SDS011;27377;50.666;9.150;2022-09-11T07:48:28;16.58;;;14.23;;
41693;SDS011;27377;50.666;9.150;2022-09-11T07:50:56;17.10;;;14.30;;
41693;SDS011;27377;50.666;9.150;2022-09-11T07:53:32;18.55;;;15.18;;
41693;SDS011;27377;50.666;9.150;2022-09-11T07:56:00;17.35;;;15.27;;
41693;SDS011;27377;50.666;9.150;2022-09-11T07:58:30;18.55;;;16.10;;
41693;SDS011;27377;50.666;9.150;2022-09-11T08:00:57;19.98;;;16.63;;
41693;SDS011;27377;50.666;9.150;2022-09-11T08:03:23;21.70;;;17.77;;
41693;SDS011;27377;50.666;9.150;2022-09-11T08:05:49;21.85;;;18.00;;
41693;SDS011;27377;50.666;9.150;2022-09-11T08:08:15;21.93;;;17.53;;
41693;SDS011;27377;50.666;9.150;2022-09-11T08:10:40;20.43;;;17.03;;
41693;SDS011;27377;50.666;9.150;2022-09-11T08:13:06;25.45;;;18.30;;
41693;SDS011;27377;50.666;9.150;2022-09-11T08:15:32;20.40;;;17.47;;
41693;SDS011;27377;50.666;9.150;2022-09-11T08:17:58;24.23;;;18.65;;
41693;SDS011;27377;50.666;9.150;2022-09-11T08:20:23;21.70;;;18.07;;
41693;SDS011;27377;50.666;9.150;2022-09-11T08:22:49;22.90;;;18.10;;
41693;SDS011;27377;50.666;9.150;2022-09-11T08:25:15;21.23;;;18.23;;
41693;SDS011;27377;50.666;9.150;2022-09-11T08:27:40;21.08;;;18.20;;
41693;SDS011;27377;50.666;9.150;2022-09-11T08:30:06;23.27;;;18.70;;
41693;SDS011;27377;50.666;9.150;2022-09-11T08:32:32;22.48;;;18.20;;
41693;SDS011;27377;50.666;9.150;2022-09-11T08:34:57;23.47;;;18.23;;
41693;SDS011;27377;50.666;9.150;2022-09-11T08:37:23;22.17;;;18.52;;
41693;SDS011;27377;50.666;9.150;2022-09-11T08:39:48;21.02;;;17.48;;
41693;SDS011;27377;50.666;9.150;2022-09-11T08:42:15;23.67;;;18.63;;
41693;SDS011;27377;50.666;9.150;2022-09-11T08:44:48;22.83;;;18.70;;
41693;SDS011;27377;50.666;9.150;2022-09-11T08:47:19;22.08;;;18.35;;
41693;SDS011;27377;50.666;9.150;2022-09-11T08:49:53;23.00;;;18.60;;
41693;SDS011;27377;50.666;9.150;2022-09-11T08:52:23;22.95;;;17.50;;
41693;SDS011;27377;50.666;9.150;2022-09-11T08:54:48;21.75;;;17.95;;
41693;SDS011;27377;50.666;9.150;2022-09-11T09:02:49;23.42;;;17.55;;
41693;SDS011;27377;50.666;9.150;2022-09-11T09:05:48;20.70;;;17.58;;
41693;SDS011;27377;50.666;9.150;2022-09-11T09:11:30;21.45;;;17.35;;
41693;SDS011;27377;50.666;9.150;2022-09-11T09:16:49;20.63;;;17.60;;
41693;SDS011;27377;50.666;9.150;2022-09-11T09:25:32;23.65;;;17.73;;
41693;SDS011;27377;50.666;9.150;2022-09-11T09:30:33;21.10;;;16.77;;
41693;SDS011;27377;50.666;9.150;2022-09-11T09:35:47;19.85;;;15.85;;
41693;SDS011;27377;50.666;9.150;2022-09-11T09:38:13;20.07;;;16.43;;
41693;SDS011;27377;50.666;9.150;2022-09-11T09:41:02;18.25;;;15.65;;
41693;SDS011;27377;50.666;9.150;2022-09-11T09:46:40;18.17;;;13.43;;
41693;SDS011;27377;50.666;9.150;2022-09-11T09:49:09;16.35;;;12.63;;
41693;SDS011;27377;50.666;9.150;2022-09-11T09:51:36;15.83;;;12.83;;
41693;SDS011;27377;50.666;9.150;2022-09-11T09:54:04;14.93;;;12.40;;
41693;SDS011;27377;50.666;9.150;2022-09-11T09:56:30;14.85;;;11.55;;
41693;SDS011;27377;50.666;9.150;2022-09-11T10:01:51;13.35;;;10.85;;
41693;SDS011;27377;50.666;9.150;2022-09-11T10:04:22;13.90;;;10.63;;
41693;SDS011;27377;50.666;9.150;2022-09-11T10:06:51;13.88;;;10.52;;
41693;SDS011;27377;50.666;9.150;2022-09-11T10:09:24;13.57;;;10.00;;
41693;SDS011;27377;50.666;9.150;2022-09-11T10:11:54;13.73;;;10.27;;
41693;SDS011;27377;50.666;9.150;2022-09-11T10:14:21;13.13;;;9.93;;
41693;SDS011;27377;50.666;9.150;2022-09-11T10:16:48;12.02;;;9.35;;
41693;SDS011;27377;50.666;9.150;2022-09-11T10:19:33;13.48;;;9.68;;
41693;SDS011;27377;50.666;9.150;2022-09-11T10:22:23;15.30;;;9.37;;
41693;SDS011;27377;50.666;9.150;2022-09-11T10:25:12;12.57;;;9.40;;
41693;SDS011;27377;50.666;9.150;2022-09-11T10:28:04;14.10;;;10.02;;
41693;SDS011;27377;50.666;9.150;2022-09-11T10:30:54;13.57;;;9.77;;
41693;SDS011;27377;50.666;9.150;2022-09-11T10:33:30;11.23;;;8.75;;
41693;SDS011;27377;50.666;9.150;2022-09-11T10:36:01;12.98;;;9.55;;
41693;SDS011;27377;50.666;9.150;2022-09-11T10:38:36;12.38;;;9.43;;
41693;SDS011;27377;50.666;9.150;2022-09-11T10:51:30;12.68;;;9.07;;
41693;SDS011;27377;50.666;9.150;2022-09-11T10:56:25;9.48;;;7.50;;
41693;SDS011;27377;50.666;9.150;2022-09-11T10:58:53;12.27;;;7.22;;
41693;SDS011;27377;50.666;9.150;2022-09-11T11:01:25;10.25;;;6.85;;
41693;SDS011;27377;50.666;9.150;2022-09-11T11:03:51;10.03;;;7.13;;
41693;SDS011;27377;50.666;9.150;2022-09-11T11:14:56;9.38;;;6.53;;
41693;SDS011;27377;50.666;9.150;2022-09-11T11:17:39;8.70;;;6.70;;
41693;SDS011;27377;50.666;9.150;2022-09-11T11:28:31;8.30;;;6.28;;
41693;SDS011;27377;50.666;9.150;2022-09-11T11:32:00;8.90;;;6.63;;
41693;SDS011;27377;50.666;9.150;2022-09-11T11:36:54;8.57;;;6.50;;
41693;SDS011;27377;50.666;9.150;2022-09-11T11:42:09;10.20;;;6.90;;
41693;SDS011;27377;50.666;9.150;2022-09-11T11:47:46;7.75;;;6.20;;
41693;SDS011;27377;50.666;9.150;2022-09-11T11:53:23;8.05;;;6.10;;
41693;SDS011;27377;50.666;9.150;2022-09-11T11:58:56;8.23;;;6.15;;
41693;SDS011;27377;50.666;9.150;2022-09-11T12:01:31;9.18;;;6.32;;
41693;SDS011;27377;50.666;9.150;2022-09-11T12:07:13;8.63;;;6.28;;
41693;SDS011;27377;50.666;9.150;2022-09-11T12:09:44;8.30;;;6.33;;
41693;SDS011;27377;50.666;9.150;2022-09-11T12:12:13;7.63;;;5.93;;
41693;SDS011;27377;50.666;9.150;2022-09-11T12:14:46;8.32;;;6.10;;
41693;SDS011;27377;50.666;9.150;2022-09-11T12:17:23;8.05;;;6.32;;
41693;SDS011;27377;50.666;9.150;2022-09-11T12:20:39;8.38;;;6.35;;
41693;SDS011;27377;50.666;9.150;2022-09-11T12:22:56;10.48;;;6.60;;
41693;SDS011;27377;50.666;9.150;2022-09-11T12:28:19;8.52;;;6.38;;
41693;SDS011;27377;50.666;9.150;2022-09-11T12:36:16;9.23;;;6.43;;
41693;SDS011;27377;50.666;9.150;2022-09-11T12:38:52;8.23;;;6.00;;
41693;SDS011;27377;50.666;9.150;2022-09-11T12:41:25;8.88;;;6.82;;
41693;SDS011;27377;50.666;9.150;2022-09-11T12:43:53;8.05;;;6.10;;
41693;SDS011;27377;50.666;9.150;2022-09-11T12:48:47;10.90;;;7.33;;
41693;SDS011;27377;50.666;9.150;2022-09-11T12:54:02;9.70;;;6.65;;
41693;SDS011;27377;50.666;9.150;2022-09-11T12:56:44;8.25;;;6.43;;
41693;SDS011;27377;50.666;9.150;2022-09-11T12:59:25;8.60;;;6.47;;
41693;SDS011;27377;50.666;9.150;2022-09-11T13:02:41;9.77;;;7.00;;
41693;SDS011;27377;50.666;9.150;2022-09-11T13:05:27;9.95;;;6.90;;
41693;SDS011;27377;50.666;9.150;2022-09-11T13:07:59;8.85;;;6.35;;
41693;SDS011;27377;50.666;9.150;2022-09-11T13:10:32;9.05;;;6.28;;
41693;SDS011;27377;50.666;9.150;2022-09-11T13:13:01;8.53;;;6.03;;
41693;SDS011;27377;50.666;9.150;2022-09-11T13:15:47;7.93;;;5.78;;
41693;SDS011;27377;50.666;9.150;2022-09-11T13:18:24;8.13;;;5.53;;
41693;SDS011;27377;50.666;9.150;2022-09-11T13:23:34;6.70;;;5.10;;
41693;SDS011;27377;50.666;9.150;2022-09-11T13:26:01;8.73;;;5.25;;
41693;SDS011;27377;50.666;9.150;2022-09-11T13:28:29;7.40;;;5.20;;
41693;SDS011;27377;50.666;9.150;2022-09-11T13:30:58;7.97;;;5.20;;
41693;SDS011;27377;50.666;9.150;2022-09-11T13:33:27;6.47;;;5.05;;
41693;SDS011;27377;50.666;9.150;2022-09-11T13:35:55;7.63;;;5.20;;
41693;SDS011;27377;50.666;9.150;2022-09-11T13:38:26;6.68;;;4.80;;
41693;SDS011;27377;50.666;9.150;2022-09-11T13:40:57;6.60;;;4.88;;
41693;SDS011;27377;50.666;9.150;2022-09-11T13:43:27;7.00;;;4.53;;
41693;SDS011;27377;50.666;9.150;2022-09-11T13:48:40;6.25;;;4.53;;
41693;SDS011;27377;50.666;9.150;2022-09-11T13:51:20;6.40;;;4.53;;
41693;SDS011;27377;50.666;9.150;2022-09-11T13:54:02;6.32;;;4.70;;
41693;SDS011;27377;50.666;9.150;2022-09-11T14:01:51;5.93;;;4.10;;
41693;SDS011;27377;50.666;9.150;2022-09-11T14:04:20;7.43;;;4.50;;
41693;SDS011;27377;50.666;9.150;2022-09-11T14:06:46;5.60;;;4.30;;
41693;SDS011;27377;50.666;9.150;2022-09-11T14:09:14;6.20;;;4.25;;
41693;SDS011;27377;50.666;9.150;2022-09-11T14:11:43;7.05;;;4.70;;
41693;SDS011;27377;50.666;9.150;2022-09-11T14:14:10;6.80;;;4.65;;
41693;SDS011;27377;50.666;9.150;2022-09-11T14:16:51;7.65;;;5.00;;
41693;SDS011;27377;50.666;9.150;2022-09-11T14:19:20;7.63;;;4.75;;
41693;SDS011;27377;50.666;9.150;2022-09-11T14:21:48;6.30;;;4.68;;
41693;SDS011;27377;50.666;9.150;2022-09-11T14:27:02;5.78;;;4.30;;
41693;SDS011;27377;50.666;9.150;2022-09-11T14:29:52;6.07;;;4.50;;
41693;SDS011;27377;50.666;9.150;2022-09-11T14:35:03;6.30;;;4.47;;
41693;SDS011;27377;50.666;9.150;2022-09-11T14:37:34;7.60;;;4.63;;
41693;SDS011;27377;50.666;9.150;2022-09-11T14:40:05;6.25;;;4.03;;
41693;SDS011;27377;50.666;9.150;2022-09-11T14:42:38;8.48;;;4.00;;
41693;SDS011;27377;50.666;9.150;2022-09-11T14:45:23;6.70;;;4.03;;
41693;SDS011;27377;50.666;9.150;2022-09-11T14:47:50;6.22;;;4.10;;
41693;SDS011;27377;50.666;9.150;2022-09-11T14:50:17;5.32;;;3.60;;
41693;SDS011;27377;50.666;9.150;2022-09-11T14:52:43;5.60;;;4.00;;
41693;SDS011;27377;50.666;9.150;2022-09-11T14:55:12;5.60;;;3.97;;
41693;SDS011;27377;50.666;9.150;2022-09-11T14:57:39;6.70;;;4.10;;
41693;SDS011;27377;50.666;9.150;2022-09-11T15:00:06;5.68;;;3.38;;
41693;SDS011;27377;50.666;9.150;2022-09-11T15:02:33;5.28;;;3.50;;
41693;SDS011;27377;50.666;9.150;2022-09-11T15:04:58;5.10;;;3.42;;
41693;SDS011;27377;50.666;9.150;2022-09-11T15:07:24;5.40;;;3.50;;
41693;SDS011;27377;50.666;9.150;2022-09-11T15:09:51;6.88;;;3.50;;
41693;SDS011;27377;50.666;9.150;2022-09-11T15:12:18;4.88;;;3.40;;
41693;SDS011;27377;50.666;9.150;2022-09-11T15:14:45;4.38;;;3.30;;
41693;SDS011;27377;50.666;9.150;2022-09-11T15:17:14;5.25;;;3.45;;
41693;SDS011;27377;50.666;9.150;2022-09-11T15:19:42;5.88;;;3.30;;
41693;SDS011;27377;50.666;9.150;2022-09-11T15:22:11;5.63;;;3.10;;
41693;SDS011;27377;50.666;9.150;2022-09-11T15:24:37;5.55;;;3.22;;
41693;SDS011;27377;50.666;9.150;2022-09-11T15:27:02;6.32;;;3.10;;
41693;SDS011;27377;50.666;9.150;2022-09-11T15:29:28;4.03;;;2.83;;
41693;SDS011;27377;50.666;9.150;2022-09-11T15:31:53;4.33;;;3.10;;
41693;SDS011;27377;50.666;9.150;2022-09-11T15:34:19;4.60;;;2.87;;
41693;SDS011;27377;50.666;9.150;2022-09-11T15:36:46;4.60;;;2.95;;
41693;SDS011;27377;50.666;9.150;2022-09-11T15:39:16;4.63;;;3.00;;
41693;SDS011;27377;50.666;9.150;2022-09-11T15:41:44;4.05;;;2.80;;
41693;SDS011;27377;50.666;9.150;2022-09-11T15:44:12;5.15;;;2.90;;
41693;SDS011;27377;50.666;9.150;2022-09-11T15:46:44;4.67;;;2.87;;
41693;SDS011;27377;50.666;9.150;2022-09-11T15:49:10;4.75;;;2.70;;
41693;SDS011;27377;50.666;9.150;2022-09-11T15:51:35;4.10;;;2.70;;
41693;SDS011;27377;50.666;9.150;2022-09-11T15:54:02;4.40;;;2.80;;
41693;SDS011;27377;50.666;9.150;2022-09-11T15:56:28;4.87;;;2.83;;
41693;SDS011;27377;50.666;9.150;2022-09-11T15:58:55;4.97;;;2.93;;
41693;SDS011;27377;50.666;9.150;2022-09-11T16:01:23;4.28;;;2.75;;
41693;SDS011;27377;50.666;9.150;2022-09-11T16:03:55;4.47;;;2.70;;
41693;SDS011;27377;50.666;9.150;2022-09-11T16:06:23;4.15;;;2.67;;
41693;SDS011;27377;50.666;9.150;2022-09-11T16:08:50;4.95;;;2.65;;
41693;SDS011;27377;50.666;9.150;2022-09-11T16:11:19;5.53;;;2.90;;
41693;SDS011;27377;50.666;9.150;2022-09-11T16:13:49;4.88;;;3.00;;
41693;SDS011;27377;50.666;9.150;2022-09-11T16:16:19;4.95;;;2.83;;
41693;SDS011;27377;50.666;9.150;2022-09-11T16:18:45;3.30;;;2.33;;
41693;SDS011;27377;50.666;9.150;2022-09-11T16:21:11;4.10;;;2.70;;
41693;SDS011;27377;50.666;9.150;2022-09-11T16:23:38;3.78;;;2.60;;
41693;SDS011;27377;50.666;9.150;2022-09-11T16:26:05;4.13;;;2.53;;
41693;SDS011;27377;50.666;9.150;2022-09-11T16:28:33;5.23;;;2.80;;
41693;SDS011;27377;50.666;9.150;2022-09-11T16:30:59;4.88;;;2.75;;
41693;SDS011;27377;50.666;9.150;2022-09-11T16:33:26;4.70;;;2.50;;
41693;SDS011;27377;50.666;9.150;2022-09-11T16:35:57;3.95;;;2.55;;
41693;SDS011;27377;50.666;9.150;2022-09-11T16:38:24;4.15;;;2.60;;
41693;SDS011;27377;50.666;9.150;2022-09-11T16:40:49;4.20;;;2.60;;
41693;SDS011;27377;50.666;9.150;2022-09-11T16:43:23;3.78;;;2.50;;
41693;SDS011;27377;50.666;9.150;2022-09-11T16:45:49;3.83;;;2.50;;
41693;SDS011;27377;50.666;9.150;2022-09-11T16:48:16;3.60;;;2.40;;
41693;SDS011;27377;50.666;9.150;2022-09-11T16:50:42;4.70;;;2.50;;
41693;SDS011;27377;50.666;9.150;2022-09-11T16:53:07;4.83;;;2.80;;
41693;SDS011;27377;50.666;9.150;2022-09-11T16:55:36;3.73;;;2.50;;
41693;SDS011;27377;50.666;9.150;2022-09-11T16:58:02;5.10;;;2.55;;
41693;SDS011;27377;50.666;9.150;2022-09-11T17:00:28;4.80;;;2.50;;
41693;SDS011;27377;50.666;9.150;2022-09-11T17:02:53;4.32;;;2.70;;
41693;SDS011;27377;50.666;9.150;2022-09-11T17:05:18;4.75;;;2.67;;
41693;SDS011;27377;50.666;9.150;2022-09-11T17:07:44;4.30;;;2.63;;
41693;SDS011;27377;50.666;9.150;2022-09-11T17:10:09;5.13;;;2.77;;
41693;SDS011;27377;50.666;9.150;2022-09-11T17:12:35;5.53;;;2.77;;
41693;SDS011;27377;50.666;9.150;2022-09-11T17:15:01;5.23;;;2.70;;